sensor_id;sensor_type;location;lat;lon;timestamp;P1;durP1;ratioP1;P2;durP2;ratioP2
68225;SDS011;55045;49.410;11.030;2023-09-08T00:01:48;11.13;;;8.38;;
68225;SDS011;55045;49.410;11.030;2023-09-08T00:04:52;10.40;;;7.90;;
68225;SDS011;55045;49.410;11.030;2023-09-08T00:07:57;10.05;;;8.18;;
68225;SDS011;55045;49.410;11.030;2023-09-08T00:11:00;13.07;;;9.90;;
68225;SDS011;55045;49.410;11.030;2023-09-08T00:14:03;13.90;;;8.48;;
68225;SDS011;55045;49.410;11.030;2023-09-08T00:17:06;12.38;;;10.38;;
68225;SDS011;55045;49.410;11.030;2023-09-08T00:20:10;11.68;;;9.40;;
68225;SDS011;55045;49.410;11.030;2023-09-08T00:23:15;10.55;;;9.00;;
68225;SDS011;55045;49.410;11.030;2023-09-08T00:26:18;9.50;;;8.50;;
68225;SDS011;55045;49.410;11.030;2023-09-08T00:29:22;12.80;;;9.02;;
68225;SDS011;55045;49.410;11.030;2023-09-08T00:32:25;11.20;;;8.73;;
68225;SDS011;55045;49.410;11.030;2023-09-08T00:35:29;11.43;;;8.93;;
68225;SDS011;55045;49.410;11.030;2023-09-08T00:38:33;12.35;;;8.63;;
68225;SDS011;55045;49.410;11.030;2023-09-08T00:41:37;12.25;;;9.40;;
68225;SDS011;55045;49.410;11.030;2023-09-08T00:44:40;11.20;;;8.55;;
68225;SDS011;55045;49.410;11.030;2023-09-08T00:47:44;11.05;;;8.20;;
68225;SDS011;55045;49.410;11.030;2023-09-08T00:50:47;11.80;;;8.93;;
68225;SDS011;55045;49.410;11.030;2023-09-08T00:53:52;13.38;;;8.50;;
68225;SDS011;55045;49.410;11.030;2023-09-08T00:56:56;11.98;;;8.27;;
68225;SDS011;55045;49.410;11.030;2023-09-08T01:00:00;9.23;;;8.30;;
68225;SDS011;55045;49.410;11.030;2023-09-08T01:03:10;9.38;;;8.40;;
68225;SDS011;55045;49.410;11.030;2023-09-08T01:06:15;11.20;;;9.20;;
68225;SDS011;55045;49.410;11.030;2023-09-08T01:09:20;12.07;;;9.18;;
68225;SDS011;55045;49.410;11.030;2023-09-08T01:12:24;13.10;;;10.00;;
68225;SDS011;55045;49.410;11.030;2023-09-08T01:15:27;12.85;;;9.75;;
68225;SDS011;55045;49.410;11.030;2023-09-08T01:18:30;11.52;;;9.65;;
68225;SDS011;55045;49.410;11.030;2023-09-08T01:25:19;11.20;;;9.20;;
68225;SDS011;55045;49.410;11.030;2023-09-08T01:28:24;13.77;;;9.88;;
68225;SDS011;55045;49.410;11.030;2023-09-08T01:31:28;13.52;;;9.05;;
68225;SDS011;55045;49.410;11.030;2023-09-08T01:34:33;11.75;;;9.90;;
68225;SDS011;55045;49.410;11.030;2023-09-08T01:37:40;11.27;;;9.25;;
68225;SDS011;55045;49.410;11.030;2023-09-08T01:40:46;13.40;;;10.20;;
68225;SDS011;55045;49.410;11.030;2023-09-08T01:43:49;12.23;;;9.70;;
68225;SDS011;55045;49.410;11.030;2023-09-08T01:46:52;14.00;;;10.02;;
68225;SDS011;55045;49.410;11.030;2023-09-08T01:49:58;10.60;;;9.02;;
68225;SDS011;55045;49.410;11.030;2023-09-08T01:53:02;11.18;;;8.98;;
68225;SDS011;55045;49.410;11.030;2023-09-08T01:56:06;10.40;;;8.95;;
68225;SDS011;55045;49.410;11.030;2023-09-08T01:59:10;11.20;;;9.07;;
68225;SDS011;55045;49.410;11.030;2023-09-08T02:02:13;12.07;;;8.82;;
68225;SDS011;55045;49.410;11.030;2023-09-08T02:05:16;12.77;;;9.88;;
68225;SDS011;55045;49.410;11.030;2023-09-08T02:08:20;13.43;;;9.73;;
68225;SDS011;55045;49.410;11.030;2023-09-08T02:11:24;10.88;;;9.43;;
68225;SDS011;55045;49.410;11.030;2023-09-08T02:14:28;11.18;;;9.57;;
68225;SDS011;55045;49.410;11.030;2023-09-08T02:17:31;12.00;;;9.77;;
68225;SDS011;55045;49.410;11.030;2023-09-08T02:20:34;12.25;;;9.00;;
68225;SDS011;55045;49.410;11.030;2023-09-08T02:23:37;22.45;;;10.07;;
68225;SDS011;55045;49.410;11.030;2023-09-08T02:26:49;12.95;;;8.98;;
68225;SDS011;55045;49.410;11.030;2023-09-08T02:29:52;10.25;;;9.00;;
68225;SDS011;55045;49.410;11.030;2023-09-08T02:32:56;16.25;;;9.93;;
68225;SDS011;55045;49.410;11.030;2023-09-08T02:36:01;14.40;;;10.15;;
68225;SDS011;55045;49.410;11.030;2023-09-08T02:39:05;13.38;;;10.38;;
68225;SDS011;55045;49.410;11.030;2023-09-08T02:42:11;9.43;;;8.43;;
68225;SDS011;55045;49.410;11.030;2023-09-08T02:45:15;13.20;;;9.48;;
68225;SDS011;55045;49.410;11.030;2023-09-08T02:48:18;14.05;;;10.65;;
68225;SDS011;55045;49.410;11.030;2023-09-08T02:51:22;10.20;;;9.05;;
68225;SDS011;55045;49.410;11.030;2023-09-08T02:54:25;11.73;;;9.38;;
68225;SDS011;55045;49.410;11.030;2023-09-08T02:57:30;10.60;;;9.50;;
68225;SDS011;55045;49.410;11.030;2023-09-08T03:00:34;11.15;;;9.68;;
68225;SDS011;55045;49.410;11.030;2023-09-08T03:03:38;13.18;;;10.18;;
68225;SDS011;55045;49.410;11.030;2023-09-08T03:06:41;9.90;;;8.70;;
68225;SDS011;55045;49.410;11.030;2023-09-08T03:09:46;11.00;;;9.07;;
68225;SDS011;55045;49.410;11.030;2023-09-08T03:12:51;10.38;;;9.00;;
68225;SDS011;55045;49.410;11.030;2023-09-08T03:15:54;9.90;;;8.88;;
68225;SDS011;55045;49.410;11.030;2023-09-08T03:18:58;12.25;;;9.25;;
68225;SDS011;55045;49.410;11.030;2023-09-08T03:22:01;8.77;;;7.90;;
68225;SDS011;55045;49.410;11.030;2023-09-08T03:25:05;13.85;;;9.27;;
68225;SDS011;55045;49.410;11.030;2023-09-08T03:28:11;10.60;;;9.52;;
68225;SDS011;55045;49.410;11.030;2023-09-08T03:34:23;10.50;;;9.15;;
68225;SDS011;55045;49.410;11.030;2023-09-08T03:37:26;11.82;;;9.57;;
68225;SDS011;55045;49.410;11.030;2023-09-08T03:40:30;12.95;;;9.27;;
68225;SDS011;55045;49.410;11.030;2023-09-08T03:43:33;10.93;;;9.82;;
68225;SDS011;55045;49.410;11.030;2023-09-08T03:46:37;10.77;;;9.68;;
68225;SDS011;55045;49.410;11.030;2023-09-08T03:49:42;10.10;;;8.98;;
68225;SDS011;55045;49.410;11.030;2023-09-08T03:52:45;13.57;;;9.65;;
68225;SDS011;55045;49.410;11.030;2023-09-08T03:55:48;13.15;;;10.70;;
68225;SDS011;55045;49.410;11.030;2023-09-08T03:58:53;11.38;;;10.02;;
68225;SDS011;55045;49.410;11.030;2023-09-08T04:01:56;11.27;;;10.07;;
68225;SDS011;55045;49.410;11.030;2023-09-08T04:05:01;11.98;;;9.98;;
68225;SDS011;55045;49.410;11.030;2023-09-08T04:08:04;10.75;;;9.73;;
68225;SDS011;55045;49.410;11.030;2023-09-08T04:11:08;12.15;;;9.75;;
68225;SDS011;55045;49.410;11.030;2023-09-08T04:14:11;13.00;;;10.80;;
68225;SDS011;55045;49.410;11.030;2023-09-08T04:17:15;11.75;;;10.35;;
68225;SDS011;55045;49.410;11.030;2023-09-08T04:20:20;16.58;;;11.57;;
68225;SDS011;55045;49.410;11.030;2023-09-08T04:23:24;14.57;;;10.20;;
68225;SDS011;55045;49.410;11.030;2023-09-08T04:26:27;11.68;;;10.07;;
68225;SDS011;55045;49.410;11.030;2023-09-08T04:29:30;12.15;;;10.85;;
68225;SDS011;55045;49.410;11.030;2023-09-08T04:32:35;11.55;;;9.60;;
68225;SDS011;55045;49.410;11.030;2023-09-08T04:35:41;11.18;;;9.85;;
68225;SDS011;55045;49.410;11.030;2023-09-08T04:38:44;12.98;;;9.98;;
68225;SDS011;55045;49.410;11.030;2023-09-08T04:41:49;14.90;;;9.98;;
68225;SDS011;55045;49.410;11.030;2023-09-08T04:44:52;11.38;;;9.80;;
68225;SDS011;55045;49.410;11.030;2023-09-08T04:47:56;13.55;;;10.70;;
68225;SDS011;55045;49.410;11.030;2023-09-08T04:51:01;13.38;;;10.52;;
68225;SDS011;55045;49.410;11.030;2023-09-08T04:54:04;13.88;;;10.63;;
68225;SDS011;55045;49.410;11.030;2023-09-08T04:57:08;11.13;;;9.80;;
68225;SDS011;55045;49.410;11.030;2023-09-08T05:00:25;12.13;;;10.13;;
68225;SDS011;55045;49.410;11.030;2023-09-08T05:03:30;12.02;;;9.38;;
68225;SDS011;55045;49.410;11.030;2023-09-08T05:06:36;10.63;;;9.52;;
68225;SDS011;55045;49.410;11.030;2023-09-08T05:09:39;12.90;;;10.02;;
68225;SDS011;55045;49.410;11.030;2023-09-08T05:12:42;12.00;;;9.85;;
68225;SDS011;55045;49.410;11.030;2023-09-08T05:15:46;13.00;;;11.18;;
68225;SDS011;55045;49.410;11.030;2023-09-08T05:18:50;13.00;;;10.13;;
68225;SDS011;55045;49.410;11.030;2023-09-08T05:21:55;11.90;;;9.98;;
68225;SDS011;55045;49.410;11.030;2023-09-08T05:25:00;13.90;;;10.50;;
68225;SDS011;55045;49.410;11.030;2023-09-08T05:28:04;11.63;;;10.43;;
68225;SDS011;55045;49.410;11.030;2023-09-08T05:31:08;11.65;;;10.13;;
68225;SDS011;55045;49.410;11.030;2023-09-08T05:34:12;10.82;;;9.70;;
68225;SDS011;55045;49.410;11.030;2023-09-08T05:37:17;14.70;;;10.93;;
68225;SDS011;55045;49.410;11.030;2023-09-08T05:40:20;14.68;;;10.57;;
68225;SDS011;55045;49.410;11.030;2023-09-08T05:43:26;14.60;;;11.48;;
68225;SDS011;55045;49.410;11.030;2023-09-08T05:46:30;14.30;;;11.32;;
68225;SDS011;55045;49.410;11.030;2023-09-08T05:49:33;13.88;;;10.68;;
68225;SDS011;55045;49.410;11.030;2023-09-08T05:52:40;15.70;;;9.95;;
68225;SDS011;55045;49.410;11.030;2023-09-08T05:55:43;12.38;;;10.85;;
68225;SDS011;55045;49.410;11.030;2023-09-08T05:58:47;13.50;;;10.05;;
68225;SDS011;55045;49.410;11.030;2023-09-08T06:01:50;13.60;;;10.23;;
68225;SDS011;55045;49.410;11.030;2023-09-08T06:04:53;13.07;;;10.77;;
68225;SDS011;55045;49.410;11.030;2023-09-08T06:07:59;11.43;;;9.05;;
68225;SDS011;55045;49.410;11.030;2023-09-08T06:11:12;13.65;;;11.05;;
68225;SDS011;55045;49.410;11.030;2023-09-08T06:14:16;12.20;;;9.35;;
68225;SDS011;55045;49.410;11.030;2023-09-08T06:17:22;14.05;;;10.85;;
68225;SDS011;55045;49.410;11.030;2023-09-08T06:20:26;14.70;;;11.55;;
68225;SDS011;55045;49.410;11.030;2023-09-08T06:23:30;14.70;;;10.20;;
68225;SDS011;55045;49.410;11.030;2023-09-08T06:26:35;14.07;;;10.27;;
68225;SDS011;55045;49.410;11.030;2023-09-08T06:29:38;14.77;;;10.60;;
68225;SDS011;55045;49.410;11.030;2023-09-08T06:32:46;15.40;;;11.40;;
68225;SDS011;55045;49.410;11.030;2023-09-08T06:35:51;12.57;;;10.25;;
68225;SDS011;55045;49.410;11.030;2023-09-08T06:38:57;12.35;;;9.80;;
68225;SDS011;55045;49.410;11.030;2023-09-08T06:42:00;13.43;;;10.27;;
68225;SDS011;55045;49.410;11.030;2023-09-08T06:45:04;14.27;;;10.88;;
68225;SDS011;55045;49.410;11.030;2023-09-08T06:48:08;13.20;;;9.73;;
68225;SDS011;55045;49.410;11.030;2023-09-08T06:51:12;10.95;;;9.30;;
68225;SDS011;55045;49.410;11.030;2023-09-08T06:54:17;11.63;;;10.05;;
68225;SDS011;55045;49.410;11.030;2023-09-08T06:57:21;11.27;;;9.73;;
68225;SDS011;55045;49.410;11.030;2023-09-08T07:00:24;11.95;;;9.10;;
68225;SDS011;55045;49.410;11.030;2023-09-08T07:03:28;13.65;;;9.98;;
68225;SDS011;55045;49.410;11.030;2023-09-08T07:06:41;12.45;;;8.82;;
68225;SDS011;55045;49.410;11.030;2023-09-08T07:09:48;12.43;;;9.50;;
68225;SDS011;55045;49.410;11.030;2023-09-08T07:12:51;13.90;;;9.30;;
68225;SDS011;55045;49.410;11.030;2023-09-08T07:15:55;11.80;;;8.82;;
68225;SDS011;55045;49.410;11.030;2023-09-08T07:18:58;11.02;;;8.90;;
68225;SDS011;55045;49.410;11.030;2023-09-08T07:22:03;12.45;;;8.93;;
68225;SDS011;55045;49.410;11.030;2023-09-08T07:25:10;10.85;;;8.80;;
68225;SDS011;55045;49.410;11.030;2023-09-08T07:28:13;12.32;;;8.30;;
68225;SDS011;55045;49.410;11.030;2023-09-08T07:31:17;15.23;;;8.25;;
68225;SDS011;55045;49.410;11.030;2023-09-08T07:34:23;9.30;;;8.32;;
68225;SDS011;55045;49.410;11.030;2023-09-08T07:37:26;13.48;;;8.52;;
68225;SDS011;55045;49.410;11.030;2023-09-08T07:40:32;12.48;;;9.13;;
68225;SDS011;55045;49.410;11.030;2023-09-08T07:43:36;14.55;;;8.63;;
68225;SDS011;55045;49.410;11.030;2023-09-08T07:46:44;10.60;;;7.47;;
68225;SDS011;55045;49.410;11.030;2023-09-08T07:49:48;11.02;;;8.00;;
68225;SDS011;55045;49.410;11.030;2023-09-08T07:52:51;9.75;;;7.63;;
68225;SDS011;55045;49.410;11.030;2023-09-08T07:55:57;14.43;;;8.05;;
68225;SDS011;55045;49.410;11.030;2023-09-08T07:59:00;12.98;;;8.15;;
68225;SDS011;55045;49.410;11.030;2023-09-08T08:02:04;10.85;;;7.28;;
68225;SDS011;55045;49.410;11.030;2023-09-08T08:05:07;13.02;;;7.57;;
68225;SDS011;55045;49.410;11.030;2023-09-08T08:08:11;11.52;;;7.70;;
68225;SDS011;55045;49.410;11.030;2023-09-08T08:11:16;10.80;;;7.70;;
68225;SDS011;55045;49.410;11.030;2023-09-08T08:14:20;13.07;;;7.45;;
68225;SDS011;55045;49.410;11.030;2023-09-08T08:17:23;10.77;;;7.80;;
68225;SDS011;55045;49.410;11.030;2023-09-08T08:20:28;10.93;;;7.75;;
68225;SDS011;55045;49.410;11.030;2023-09-08T08:23:31;13.60;;;7.20;;
68225;SDS011;55045;49.410;11.030;2023-09-08T08:26:37;10.90;;;6.25;;
68225;SDS011;55045;49.410;11.030;2023-09-08T08:29:40;8.68;;;6.40;;
68225;SDS011;55045;49.410;11.030;2023-09-08T08:32:43;9.63;;;6.15;;
68225;SDS011;55045;49.410;11.030;2023-09-08T08:35:50;14.02;;;7.57;;
68225;SDS011;55045;49.410;11.030;2023-09-08T08:38:54;9.77;;;7.50;;
68225;SDS011;55045;49.410;11.030;2023-09-08T08:41:59;10.32;;;6.72;;
68225;SDS011;55045;49.410;11.030;2023-09-08T08:45:10;12.80;;;6.80;;
68225;SDS011;55045;49.410;11.030;2023-09-08T08:48:14;11.18;;;5.95;;
68225;SDS011;55045;49.410;11.030;2023-09-08T08:51:21;9.43;;;7.27;;
68225;SDS011;55045;49.410;11.030;2023-09-08T08:54:26;7.13;;;5.65;;
68225;SDS011;55045;49.410;11.030;2023-09-08T08:57:32;14.68;;;6.63;;
68225;SDS011;55045;49.410;11.030;2023-09-08T09:00:36;9.98;;;6.60;;
68225;SDS011;55045;49.410;11.030;2023-09-08T09:03:41;9.63;;;6.13;;
68225;SDS011;55045;49.410;11.030;2023-09-08T09:06:46;8.52;;;5.88;;
68225;SDS011;55045;49.410;11.030;2023-09-08T09:09:50;6.07;;;5.47;;
68225;SDS011;55045;49.410;11.030;2023-09-08T09:12:55;7.57;;;5.72;;
68225;SDS011;55045;49.410;11.030;2023-09-08T09:15:59;11.23;;;6.20;;
68225;SDS011;55045;49.410;11.030;2023-09-08T09:19:05;12.10;;;5.93;;
68225;SDS011;55045;49.410;11.030;2023-09-08T09:22:08;9.98;;;5.78;;
68225;SDS011;55045;49.410;11.030;2023-09-08T09:25:20;8.27;;;6.00;;
68225;SDS011;55045;49.410;11.030;2023-09-08T09:28:26;6.38;;;5.00;;
68225;SDS011;55045;49.410;11.030;2023-09-08T09:34:23;6.95;;;5.90;;
68225;SDS011;55045;49.410;11.030;2023-09-08T09:37:27;13.45;;;5.80;;
68225;SDS011;55045;49.410;11.030;2023-09-08T09:40:31;6.85;;;5.80;;
68225;SDS011;55045;49.410;11.030;2023-09-08T09:43:34;6.07;;;5.55;;
68225;SDS011;55045;49.410;11.030;2023-09-08T09:46:42;5.95;;;5.35;;
68225;SDS011;55045;49.410;11.030;2023-09-08T09:49:48;6.32;;;5.38;;
68225;SDS011;55045;49.410;11.030;2023-09-08T09:52:52;6.05;;;5.40;;
68225;SDS011;55045;49.410;11.030;2023-09-08T09:55:59;7.13;;;5.35;;
68225;SDS011;55045;49.410;11.030;2023-09-08T09:59:04;5.57;;;4.82;;
68225;SDS011;55045;49.410;11.030;2023-09-08T10:02:07;7.13;;;5.22;;
68225;SDS011;55045;49.410;11.030;2023-09-08T10:05:17;7.43;;;4.95;;
68225;SDS011;55045;49.410;11.030;2023-09-08T10:08:21;6.00;;;5.15;;
68225;SDS011;55045;49.410;11.030;2023-09-08T10:11:25;11.90;;;5.47;;
68225;SDS011;55045;49.410;11.030;2023-09-08T10:17:38;5.35;;;4.85;;
68225;SDS011;55045;49.410;11.030;2023-09-08T10:20:45;6.65;;;5.22;;
68225;SDS011;55045;49.410;11.030;2023-09-08T10:23:54;6.22;;;5.50;;
68225;SDS011;55045;49.410;11.030;2023-09-08T10:27:07;5.53;;;5.03;;
68225;SDS011;55045;49.410;11.030;2023-09-08T10:30:11;6.75;;;4.68;;
68225;SDS011;55045;49.410;11.030;2023-09-08T10:33:17;5.70;;;4.53;;
68225;SDS011;55045;49.410;11.030;2023-09-08T10:36:23;6.03;;;5.43;;
68225;SDS011;55045;49.410;11.030;2023-09-08T10:39:28;5.90;;;4.82;;
68225;SDS011;55045;49.410;11.030;2023-09-08T10:42:33;5.28;;;4.80;;
68225;SDS011;55045;49.410;11.030;2023-09-08T10:45:36;5.90;;;5.30;;
68225;SDS011;55045;49.410;11.030;2023-09-08T10:48:41;6.25;;;4.95;;
68225;SDS011;55045;49.410;11.030;2023-09-08T10:51:49;5.60;;;4.97;;
68225;SDS011;55045;49.410;11.030;2023-09-08T10:54:53;6.20;;;4.63;;
68225;SDS011;55045;49.410;11.030;2023-09-08T10:57:57;5.75;;;4.90;;
68225;SDS011;55045;49.410;11.030;2023-09-08T11:01:00;5.43;;;4.30;;
68225;SDS011;55045;49.410;11.030;2023-09-08T11:04:06;5.05;;;4.22;;
68225;SDS011;55045;49.410;11.030;2023-09-08T11:07:14;5.82;;;4.40;;
68225;SDS011;55045;49.410;11.030;2023-09-08T11:10:17;5.90;;;4.50;;
68225;SDS011;55045;49.410;11.030;2023-09-08T11:13:20;6.13;;;4.25;;
68225;SDS011;55045;49.410;11.030;2023-09-08T11:16:24;4.88;;;4.22;;
68225;SDS011;55045;49.410;11.030;2023-09-08T11:19:44;6.07;;;4.32;;
68225;SDS011;55045;49.410;11.030;2023-09-08T11:22:50;5.30;;;3.90;;
68225;SDS011;55045;49.410;11.030;2023-09-08T11:25:54;5.30;;;4.80;;
68225;SDS011;55045;49.410;11.030;2023-09-08T11:28:57;5.75;;;4.45;;
68225;SDS011;55045;49.410;11.030;2023-09-08T11:32:01;7.07;;;3.72;;
68225;SDS011;55045;49.410;11.030;2023-09-08T11:35:05;4.80;;;4.30;;
68225;SDS011;55045;49.410;11.030;2023-09-08T11:38:12;7.72;;;4.13;;
68225;SDS011;55045;49.410;11.030;2023-09-08T11:41:16;5.05;;;4.32;;
68225;SDS011;55045;49.410;11.030;2023-09-08T11:44:24;4.82;;;4.30;;
68225;SDS011;55045;49.410;11.030;2023-09-08T11:47:27;6.45;;;3.85;;
68225;SDS011;55045;49.410;11.030;2023-09-08T11:50:31;6.13;;;3.72;;
68225;SDS011;55045;49.410;11.030;2023-09-08T11:53:36;4.95;;;4.00;;
68225;SDS011;55045;49.410;11.030;2023-09-08T11:56:47;7.18;;;4.05;;
68225;SDS011;55045;49.410;11.030;2023-09-08T11:59:50;5.65;;;4.20;;
68225;SDS011;55045;49.410;11.030;2023-09-08T12:02:55;5.05;;;3.90;;
68225;SDS011;55045;49.410;11.030;2023-09-08T12:05:58;5.32;;;3.80;;
68225;SDS011;55045;49.410;11.030;2023-09-08T12:09:05;3.90;;;3.55;;
68225;SDS011;55045;49.410;11.030;2023-09-08T12:12:10;8.07;;;4.43;;
68225;SDS011;55045;49.410;11.030;2023-09-08T12:15:30;5.38;;;3.70;;
68225;SDS011;55045;49.410;11.030;2023-09-08T12:18:38;6.07;;;4.38;;
68225;SDS011;55045;49.410;11.030;2023-09-08T12:21:53;6.68;;;4.25;;
68225;SDS011;55045;49.410;11.030;2023-09-08T12:24:59;4.93;;;4.00;;
68225;SDS011;55045;49.410;11.030;2023-09-08T12:28:04;6.78;;;4.10;;
68225;SDS011;55045;49.410;11.030;2023-09-08T12:31:08;7.95;;;4.10;;
68225;SDS011;55045;49.410;11.030;2023-09-08T12:34:11;6.13;;;4.20;;
68225;SDS011;55045;49.410;11.030;2023-09-08T12:37:18;6.65;;;4.40;;
68225;SDS011;55045;49.410;11.030;2023-09-08T12:40:24;5.75;;;4.45;;
68225;SDS011;55045;49.410;11.030;2023-09-08T12:43:27;5.22;;;4.13;;
68225;SDS011;55045;49.410;11.030;2023-09-08T12:46:31;4.07;;;3.67;;
68225;SDS011;55045;49.410;11.030;2023-09-08T12:49:37;4.47;;;3.85;;
68225;SDS011;55045;49.410;11.030;2023-09-08T12:52:40;4.63;;;4.22;;
68225;SDS011;55045;49.410;11.030;2023-09-08T12:55:45;5.22;;;4.18;;
68225;SDS011;55045;49.410;11.030;2023-09-08T12:58:49;7.03;;;4.07;;
68225;SDS011;55045;49.410;11.030;2023-09-08T13:01:52;4.30;;;3.90;;
68225;SDS011;55045;49.410;11.030;2023-09-08T13:04:56;4.80;;;4.00;;
68225;SDS011;55045;49.410;11.030;2023-09-08T13:07:59;4.80;;;3.92;;
68225;SDS011;55045;49.410;11.030;2023-09-08T13:11:04;5.57;;;4.20;;
68225;SDS011;55045;49.410;11.030;2023-09-08T13:14:07;6.75;;;4.38;;
68225;SDS011;55045;49.410;11.030;2023-09-08T13:17:11;6.88;;;4.10;;
68225;SDS011;55045;49.410;11.030;2023-09-08T13:20:15;5.85;;;4.35;;
68225;SDS011;55045;49.410;11.030;2023-09-08T13:23:19;7.43;;;4.63;;
68225;SDS011;55045;49.410;11.030;2023-09-08T13:26:23;9.32;;;4.30;;
68225;SDS011;55045;49.410;11.030;2023-09-08T13:29:27;5.15;;;4.57;;
68225;SDS011;55045;49.410;11.030;2023-09-08T13:32:31;6.63;;;4.20;;
68225;SDS011;55045;49.410;11.030;2023-09-08T13:35:34;5.43;;;4.20;;
68225;SDS011;55045;49.410;11.030;2023-09-08T13:38:37;6.82;;;4.53;;
68225;SDS011;55045;49.410;11.030;2023-09-08T13:41:49;5.47;;;3.80;;
68225;SDS011;55045;49.410;11.030;2023-09-08T13:44:53;7.13;;;4.35;;
68225;SDS011;55045;49.410;11.030;2023-09-08T13:47:57;6.05;;;4.03;;
68225;SDS011;55045;49.410;11.030;2023-09-08T13:51:02;6.15;;;4.13;;
68225;SDS011;55045;49.410;11.030;2023-09-08T13:54:07;5.85;;;4.18;;
68225;SDS011;55045;49.410;11.030;2023-09-08T13:57:15;5.53;;;3.97;;
68225;SDS011;55045;49.410;11.030;2023-09-08T14:00:23;7.80;;;4.22;;
68225;SDS011;55045;49.410;11.030;2023-09-08T14:03:32;6.93;;;4.20;;
68225;SDS011;55045;49.410;11.030;2023-09-08T14:06:37;6.00;;;4.20;;
68225;SDS011;55045;49.410;11.030;2023-09-08T14:09:50;7.15;;;4.60;;
68225;SDS011;55045;49.410;11.030;2023-09-08T14:13:08;4.43;;;3.95;;
68225;SDS011;55045;49.410;11.030;2023-09-08T14:16:12;5.05;;;4.40;;
68225;SDS011;55045;49.410;11.030;2023-09-08T14:19:16;6.07;;;4.07;;
68225;SDS011;55045;49.410;11.030;2023-09-08T14:22:20;7.25;;;4.35;;
68225;SDS011;55045;49.410;11.030;2023-09-08T14:25:23;6.40;;;4.15;;
68225;SDS011;55045;49.410;11.030;2023-09-08T14:28:28;5.03;;;3.85;;
68225;SDS011;55045;49.410;11.030;2023-09-08T14:31:33;6.97;;;4.50;;
68225;SDS011;55045;49.410;11.030;2023-09-08T14:34:37;4.68;;;4.15;;
68225;SDS011;55045;49.410;11.030;2023-09-08T14:37:43;6.07;;;4.57;;
68225;SDS011;55045;49.410;11.030;2023-09-08T14:40:56;7.22;;;4.25;;
68225;SDS011;55045;49.410;11.030;2023-09-08T14:44:02;5.18;;;3.97;;
68225;SDS011;55045;49.410;11.030;2023-09-08T14:47:05;8.30;;;4.22;;
68225;SDS011;55045;49.410;11.030;2023-09-08T14:50:09;4.55;;;3.50;;
68225;SDS011;55045;49.410;11.030;2023-09-08T14:53:12;5.43;;;4.25;;
68225;SDS011;55045;49.410;11.030;2023-09-08T14:56:16;6.00;;;4.35;;
68225;SDS011;55045;49.410;11.030;2023-09-08T14:59:21;5.05;;;4.45;;
68225;SDS011;55045;49.410;11.030;2023-09-08T15:02:25;5.72;;;4.20;;
68225;SDS011;55045;49.410;11.030;2023-09-08T15:05:29;5.03;;;4.20;;
68225;SDS011;55045;49.410;11.030;2023-09-08T15:08:33;5.05;;;4.05;;
68225;SDS011;55045;49.410;11.030;2023-09-08T15:11:36;6.10;;;4.10;;
68225;SDS011;55045;49.410;11.030;2023-09-08T15:14:42;6.90;;;4.00;;
68225;SDS011;55045;49.410;11.030;2023-09-08T15:17:46;7.07;;;3.80;;
68225;SDS011;55045;49.410;11.030;2023-09-08T15:20:50;7.88;;;4.60;;
68225;SDS011;55045;49.410;11.030;2023-09-08T15:23:54;4.90;;;4.40;;
68225;SDS011;55045;49.410;11.030;2023-09-08T15:26:58;6.60;;;4.05;;
68225;SDS011;55045;49.410;11.030;2023-09-08T15:30:04;6.90;;;4.00;;
68225;SDS011;55045;49.410;11.030;2023-09-08T15:34:23;6.38;;;4.20;;
68225;SDS011;55045;49.410;11.030;2023-09-08T15:37:28;4.80;;;4.28;;
68225;SDS011;55045;49.410;11.030;2023-09-08T15:40:32;7.88;;;4.05;;
68225;SDS011;55045;49.410;11.030;2023-09-08T15:43:36;4.70;;;4.05;;
68225;SDS011;55045;49.410;11.030;2023-09-08T15:46:41;7.35;;;4.55;;
68225;SDS011;55045;49.410;11.030;2023-09-08T15:49:46;6.07;;;4.40;;
68225;SDS011;55045;49.410;11.030;2023-09-08T15:52:49;8.57;;;4.15;;
68225;SDS011;55045;49.410;11.030;2023-09-08T15:55:53;6.55;;;4.70;;
68225;SDS011;55045;49.410;11.030;2023-09-08T15:58:56;5.95;;;4.22;;
68225;SDS011;55045;49.410;11.030;2023-09-08T16:02:00;4.80;;;4.25;;
68225;SDS011;55045;49.410;11.030;2023-09-08T16:05:06;5.70;;;4.13;;
68225;SDS011;55045;49.410;11.030;2023-09-08T16:08:10;6.20;;;4.03;;
68225;SDS011;55045;49.410;11.030;2023-09-08T16:11:13;7.55;;;4.90;;
68225;SDS011;55045;49.410;11.030;2023-09-08T16:14:17;5.90;;;4.43;;
68225;SDS011;55045;49.410;11.030;2023-09-08T16:17:20;6.07;;;4.65;;
68225;SDS011;55045;49.410;11.030;2023-09-08T16:20:27;5.47;;;4.38;;
68225;SDS011;55045;49.410;11.030;2023-09-08T16:23:30;7.25;;;4.28;;
68225;SDS011;55045;49.410;11.030;2023-09-08T16:26:33;5.45;;;4.45;;
68225;SDS011;55045;49.410;11.030;2023-09-08T16:29:37;6.10;;;4.72;;
68225;SDS011;55045;49.410;11.030;2023-09-08T16:32:41;7.25;;;4.60;;
68225;SDS011;55045;49.410;11.030;2023-09-08T16:35:46;8.30;;;4.68;;
68225;SDS011;55045;49.410;11.030;2023-09-08T16:38:49;10.45;;;4.80;;
68225;SDS011;55045;49.410;11.030;2023-09-08T16:41:53;8.00;;;5.20;;
68225;SDS011;55045;49.410;11.030;2023-09-08T16:44:56;5.80;;;4.30;;
68225;SDS011;55045;49.410;11.030;2023-09-08T16:47:59;6.32;;;4.53;;
68225;SDS011;55045;49.410;11.030;2023-09-08T16:51:04;4.97;;;4.30;;
68225;SDS011;55045;49.410;11.030;2023-09-08T16:54:08;7.40;;;5.40;;
68225;SDS011;55045;49.410;11.030;2023-09-08T16:57:12;9.68;;;4.30;;
68225;SDS011;55045;49.410;11.030;2023-09-08T17:00:16;6.57;;;5.35;;
68225;SDS011;55045;49.410;11.030;2023-09-08T17:03:20;8.60;;;5.47;;
68225;SDS011;55045;49.410;11.030;2023-09-08T17:06:25;9.50;;;6.00;;
68225;SDS011;55045;49.410;11.030;2023-09-08T17:09:28;14.02;;;5.95;;
68225;SDS011;55045;49.410;11.030;2023-09-08T17:12:32;9.15;;;5.03;;
68225;SDS011;55045;49.410;11.030;2023-09-08T17:15:36;6.88;;;5.20;;
68225;SDS011;55045;49.410;11.030;2023-09-08T17:18:40;7.85;;;5.68;;
68225;SDS011;55045;49.410;11.030;2023-09-08T17:21:45;9.10;;;5.18;;
68225;SDS011;55045;49.410;11.030;2023-09-08T17:24:49;8.60;;;5.10;;
68225;SDS011;55045;49.410;11.030;2023-09-08T17:27:55;7.38;;;4.80;;
68225;SDS011;55045;49.410;11.030;2023-09-08T17:30:58;6.13;;;4.90;;
68225;SDS011;55045;49.410;11.030;2023-09-08T17:34:02;7.32;;;5.07;;
68225;SDS011;55045;49.410;11.030;2023-09-08T17:37:11;11.07;;;5.43;;
68225;SDS011;55045;49.410;11.030;2023-09-08T17:40:14;7.72;;;4.97;;
68225;SDS011;55045;49.410;11.030;2023-09-08T17:43:18;9.27;;;5.25;;
68225;SDS011;55045;49.410;11.030;2023-09-08T17:46:22;5.68;;;4.90;;
68225;SDS011;55045;49.410;11.030;2023-09-08T17:49:25;9.95;;;5.40;;
68225;SDS011;55045;49.410;11.030;2023-09-08T17:52:30;6.50;;;5.00;;
68225;SDS011;55045;49.410;11.030;2023-09-08T17:55:34;7.68;;;4.80;;
68225;SDS011;55045;49.410;11.030;2023-09-08T17:58:38;6.60;;;4.80;;
68225;SDS011;55045;49.410;11.030;2023-09-08T18:01:42;17.70;;;8.95;;
68225;SDS011;55045;49.410;11.030;2023-09-08T18:04:45;12.77;;;7.15;;
68225;SDS011;55045;49.410;11.030;2023-09-08T18:07:50;13.02;;;6.65;;
68225;SDS011;55045;49.410;11.030;2023-09-08T18:10:58;7.55;;;6.38;;
68225;SDS011;55045;49.410;11.030;2023-09-08T18:14:02;16.45;;;7.05;;
68225;SDS011;55045;49.410;11.030;2023-09-08T18:17:06;11.63;;;6.22;;
68225;SDS011;55045;49.410;11.030;2023-09-08T18:20:11;9.02;;;6.53;;